Time;durP1;ratioP1;P1;durP2;ratioP2;P2;SDS_P1;SDS_P2;PMS_P1;PMS_P2;Temp;Humidity;BMP_temperature;BMP_pressure;BME280_temperature;BME280_humidity;BME280_pressure;Samples;Min_cycle;Max_cycle;Signal;HPM_P1;HPM_P2
2023/07/23 00:01:40;;;;;;;13.38;6.85;;;;;;;16.05;97.13;100826.91;5066325;28;20465;-51
2023/07/23 00:04:05;;;;;;;11.45;5.95;;;;;;;16.01;97.11;100821.03;5059788;28;20025;-50
2023/07/23 00:06:33;;;;;;;9.80;5.90;;;;;;;16.01;97.23;100820.19;5060807;28;20025;-50
2023/07/23 00:08:58;;;;;;;7.93;5.80;;;;;;;15.98;97.50;100821.31;5060775;28;20028;-49
2023/07/23 00:11:23;;;;;;;9.15;5.97;;;;;;;15.97;97.39;100816.97;5061450;28;20033;-50
2023/07/23 00:13:49;;;;;;;8.60;5.97;;;;;;;15.97;97.29;100813.44;5065209;28;20016;-52
2023/07/23 00:16:14;;;;;;;7.25;5.90;;;;;;;15.99;97.56;100800.75;5061756;28;20037;-50
2023/07/23 00:18:40;;;;;;;8.60;6.28;;;;;;;15.99;97.95;100806.94;5059691;28;20021;-51
2023/07/23 00:21:05;;;;;;;11.57;6.15;;;;;;;16.00;98.00;100802.41;5059112;28;20465;-50
2023/07/23 00:23:30;;;;;;;9.40;6.43;;;;;;;15.98;98.33;100796.38;5059443;28;20116;-50
2023/07/23 00:25:56;;;;;;;10.55;6.55;;;;;;;15.98;98.03;100791.84;5059492;28;20398;-50
2023/07/23 00:28:21;;;;;;;8.43;6.18;;;;;;;15.99;98.66;100788.19;5062174;28;20021;-49
2023/07/23 00:30:46;;;;;;;10.88;5.95;;;;;;;16.00;98.42;100783.66;5063046;28;20029;-49
2023/07/23 00:33:12;;;;;;;8.60;5.57;;;;;;;15.98;97.72;100780.31;5061368;28;20061;-51
2023/07/23 00:35:38;;;;;;;8.10;5.63;;;;;;;15.96;97.61;100783.13;5058802;28;20108;-49
2023/07/23 00:38:03;;;;;;;7.85;5.95;;;;;;;15.96;97.94;100771.59;5058345;28;20469;-49
2023/07/23 00:40:29;;;;;;;9.23;5.65;;;;;;;15.96;96.98;100772.41;5060223;28;20169;-50
2023/07/23 00:42:54;;;;;;;9.48;5.97;;;;;;;15.95;97.06;100761.84;5063294;28;20458;-50
2023/07/23 00:45:20;;;;;;;8.35;5.32;;;;;;;15.95;96.67;100764.53;5063010;28;20020;-49
2023/07/23 00:47:45;;;;;;;11.20;5.70;;;;;;;15.90;96.57;100756.97;5059536;28;20352;-51
2023/07/23 00:50:13;;;;;;;6.28;5.38;;;;;;;15.85;96.50;100756.59;5058291;28;20104;-50
2023/07/23 00:52:38;;;;;;;10.90;5.75;;;;;;;15.85;96.74;100748.56;5060909;28;20419;-50
2023/07/23 00:55:05;;;;;;;8.45;5.70;;;;;;;15.83;97.12;100746.03;5061480;28;20025;-50
2023/07/23 00:57:31;;;;;;;7.47;5.80;;;;;;;15.83;96.93;100745.19;5060575;28;20036;-50
2023/07/23 00:59:56;;;;;;;10.13;5.38;;;;;;;15.83;96.79;100739.84;5060482;28;20547;-50
2023/07/23 01:02:24;;;;;;;7.15;5.35;;;;;;;15.81;96.29;100729.28;5059610;28;20029;-50
2023/07/23 01:04:50;;;;;;;9.43;5.50;;;;;;;15.80;95.87;100729.44;5061501;28;20561;-50
2023/07/23 01:07:16;;;;;;;10.88;5.45;;;;;;;15.79;96.36;100725.09;5056779;28;20048;-50
2023/07/23 01:09:41;;;;;;;10.38;5.53;;;;;;;15.78;96.02;100718.88;5061338;28;20051;-50
2023/07/23 01:12:08;;;;;;;7.75;5.15;;;;;;;15.79;97.08;100722.41;5058920;28;20037;-50
2023/07/23 01:14:33;;;;;;;8.45;5.13;;;;;;;15.77;95.84;100711.00;5061173;28;20028;-51
2023/07/23 01:16:59;;;;;;;10.07;4.97;;;;;;;15.78;95.28;100712.69;5062336;28;20478;-50
2023/07/23 01:19:26;;;;;;;10.07;5.53;;;;;;;15.77;95.44;100711.00;5060125;28;20112;-50
2023/07/23 01:22:05;;;;;;;11.30;6.25;;;;;;;15.76;94.88;100704.81;5058201;28;20048;-50
2023/07/23 01:24:30;;;;;;;9.68;6.53;;;;;;;15.71;94.70;100697.19;5065532;28;20032;-50
2023/07/23 01:26:56;;;;;;;13.27;7.18;;;;;;;15.68;94.63;100692.16;5055929;28;20033;-50
2023/07/23 01:29:21;;;;;;;13.88;7.97;;;;;;;15.66;94.31;100688.78;5057281;28;20052;-50
2023/07/23 01:31:46;;;;;;;13.40;7.88;;;;;;;15.65;94.70;100686.25;5057595;28;20048;-50
2023/07/23 01:34:12;;;;;;;10.73;7.75;;;;;;;15.64;94.33;100684.59;5056135;28;20086;-49
2023/07/23 01:36:38;;;;;;;10.27;7.13;;;;;;;15.59;94.33;100679.69;5057499;28;20027;-49
2023/07/23 01:39:03;;;;;;;13.45;7.50;;;;;;;15.58;94.27;100675.34;5061669;28;20040;-50
2023/07/23 01:41:29;;;;;;;10.43;7.05;;;;;;;15.60;94.42;100669.81;5058088;28;20029;-52
2023/07/23 01:43:55;;;;;;;10.32;6.45;;;;;;;15.57;94.35;100668.31;5064538;28;20033;-52
2023/07/23 01:46:20;;;;;;;8.63;6.05;;;;;;;15.61;93.98;100668.84;5059300;28;20028;-50
2023/07/23 01:48:45;;;;;;;8.85;5.90;;;;;;;15.60;94.06;100664.47;5055055;28;20040;-50
2023/07/23 01:51:11;;;;;;;10.90;6.20;;;;;;;15.58;93.98;100664.63;5058394;28;20048;-53
2023/07/23 01:53:37;;;;;;;8.45;6.38;;;;;;;15.54;94.20;100656.06;5060358;28;20029;-51
2023/07/23 01:56:02;;;;;;;9.35;6.22;;;;;;;15.53;94.30;100645.50;5057586;28;20480;-50
2023/07/23 01:58:28;;;;;;;15.30;6.15;;;;;;;15.54;94.66;100640.00;5059483;28;20049;-50
2023/07/23 02:00:58;;;;;;;9.90;5.68;;;;;;;15.55;93.89;100648.88;5056371;28;20444;-50
2023/07/23 02:03:23;;;;;;;9.80;6.03;;;;;;;15.54;94.30;100642.69;5062116;28;20554;-50
2023/07/23 02:05:59;;;;;;;6.55;5.40;;;;;;;15.54;94.24;100640.00;5054335;28;20119;-50
2023/07/23 02:08:25;;;;;;;8.88;5.55;;;;;;;15.56;93.61;100637.16;5057289;28;20025;-51
2023/07/23 02:10:58;;;;;;;9.85;5.72;;;;;;;15.56;93.83;100631.81;5059818;28;20031;-50
2023/07/23 02:13:24;;;;;;;8.00;5.30;;;;;;;15.55;92.52;100635.47;5058392;28;20029;-50
2023/07/23 02:15:49;;;;;;;7.72;5.22;;;;;;;15.58;93.53;100623.63;5060898;28;20035;-50
2023/07/23 02:18:15;;;;;;;12.25;5.50;;;;;;;15.57;92.57;100622.81;5062025;28;20028;-52
2023/07/23 02:20:42;;;;;;;7.88;5.40;;;;;;;15.57;92.44;100612.09;5057536;28;20466;-51
2023/07/23 02:23:07;;;;;;;8.15;5.45;;;;;;;15.58;92.50;100613.75;5058180;28;20071;-49
2023/07/23 02:25:41;;;;;;;8.63;5.43;;;;;;;15.61;92.68;100613.44;5056741;28;20044;-50
2023/07/23 02:28:08;;;;;;;6.60;4.75;;;;;;;15.60;92.11;100610.94;5055483;28;20532;-50
2023/07/23 02:30:33;;;;;;;10.07;4.97;;;;;;;15.62;92.58;100611.59;5055727;28;20110;-49
2023/07/23 02:32:59;;;;;;;16.75;7.80;;;;;;;15.61;92.18;100602.75;5057812;28;20052;-50
2023/07/23 02:35:24;;;;;;;8.50;5.28;;;;;;;15.61;91.88;100600.06;5057634;28;20032;-50
2023/07/23 02:37:49;;;;;;;9.38;4.50;;;;;;;15.63;91.79;100594.56;5057095;28;20013;-51
2023/07/23 02:40:15;;;;;;;8.10;4.32;;;;;;;15.62;91.55;100596.41;5060282;28;20032;-51
2023/07/23 02:42:40;;;;;;;7.05;5.22;;;;;;;15.63;90.98;100590.03;5059324;28;20503;-52
2023/07/23 02:45:06;;;;;;;8.52;4.72;;;;;;;15.64;91.21;100598.94;5059103;28;20029;-50
2023/07/23 02:47:31;;;;;;;10.15;4.93;;;;;;;15.65;89.32;100587.19;5059140;28;20024;-50
2023/07/23 02:49:57;;;;;;;5.95;4.45;;;;;;;15.67;90.43;100587.88;5054406;28;20024;-50
2023/07/23 02:52:23;;;;;;;11.73;4.45;;;;;;;15.66;89.82;100594.25;5057878;28;20078;-50
2023/07/23 02:54:48;;;;;;;8.93;4.50;;;;;;;15.67;89.41;100582.53;5058752;28;20033;-53
2023/07/23 02:57:14;;;;;;;8.00;4.32;;;;;;;15.67;89.63;100591.41;5056791;28;20037;-50
2023/07/23 02:59:39;;;;;;;7.78;4.47;;;;;;;15.67;88.26;100577.16;5057919;28;20026;-50
2023/07/23 03:02:05;;;;;;;7.07;4.55;;;;;;;15.68;88.94;100589.56;5061124;28;20021;-50
2023/07/23 03:04:30;;;;;;;8.88;4.40;;;;;;;15.67;88.87;100583.38;5057290;28;20037;-51
2023/07/23 03:06:55;;;;;;;6.70;4.55;;;;;;;15.66;89.08;100570.16;5058258;28;20028;-50
2023/07/23 03:09:21;;;;;;;7.88;4.80;;;;;;;15.67;89.00;100578.03;5055393;28;20087;-49
2023/07/23 03:11:47;;;;;;;8.40;4.43;;;;;;;15.67;88.37;100580.72;5059467;28;20040;-53
2023/07/23 03:14:12;;;;;;;9.45;4.95;;;;;;;15.66;88.39;100570.16;5058003;28;20108;-50
2023/07/23 03:16:37;;;;;;;11.10;4.50;;;;;;;15.66;88.54;100570.16;5059749;28;20139;-50
2023/07/23 03:19:03;;;;;;;5.95;4.60;;;;;;;15.66;88.48;100570.97;5057332;28;20037;-49
2023/07/23 03:21:28;;;;;;;8.10;4.53;;;;;;;15.67;88.36;100564.63;5059428;28;20021;-53
2023/07/23 03:23:53;;;;;;;6.70;4.32;;;;;;;15.66;88.07;100564.78;5057131;28;20056;-50
2023/07/23 03:26:19;;;;;;;5.47;3.97;;;;;;;15.66;87.80;100567.47;5057509;28;20029;-51
2023/07/23 03:28:44;;;;;;;6.38;4.35;;;;;;;15.66;87.83;100570.97;5056029;28;20457;-52
2023/07/23 03:31:11;;;;;;;6.45;4.90;;;;;;;15.65;87.55;100571.97;5057419;28;20116;-50
2023/07/23 03:33:36;;;;;;;6.78;4.18;;;;;;;15.64;87.00;100564.94;5060351;28;20077;-53
2023/07/23 03:36:01;;;;;;;6.75;4.50;;;;;;;15.63;87.95;100565.94;5057803;28;20024;-50
2023/07/23 03:38:27;;;;;;;9.45;4.45;;;;;;;15.64;87.23;100572.16;5057500;28;20040;-51
2023/07/23 03:40:52;;;;;;;9.35;4.68;;;;;;;15.65;86.13;100569.28;5057928;28;20025;-50
2023/07/23 03:43:17;;;;;;;7.85;4.25;;;;;;;15.62;85.48;100561.59;5059177;28;20056;-50
2023/07/23 03:45:43;;;;;;;9.48;4.10;;;;;;;15.66;85.68;100568.31;5064483;28;20591;-50
2023/07/23 03:48:08;;;;;;;5.53;4.03;;;;;;;15.63;86.18;100557.91;5058849;28;20025;-51
2023/07/23 03:50:33;;;;;;;9.38;4.50;;;;;;;15.64;86.16;100562.28;5061707;28;20043;-50
2023/07/23 03:52:58;;;;;;;4.93;4.32;;;;;;;15.65;85.26;100568.47;5062820;28;20029;-51
2023/07/23 03:55:24;;;;;;;10.48;4.00;;;;;;;15.65;85.19;100566.63;5063264;28;20031;-51
2023/07/23 03:57:49;;;;;;;5.45;4.10;;;;;;;15.66;84.50;100570.16;5057700;28;20398;-53
2023/07/23 04:00:15;;;;;;;4.97;4.13;;;;;;;15.65;85.35;100566.63;5061498;28;20085;-50
2023/07/23 04:02:41;;;;;;;10.93;4.10;;;;;;;15.67;84.77;100567.31;5060929;28;20051;-51
2023/07/23 04:05:07;;;;;;;6.47;4.20;;;;;;;15.64;84.56;100567.63;5062848;28;20039;-50
2023/07/23 04:07:32;;;;;;;6.85;3.95;;;;;;;15.64;84.96;100575.66;5057033;28;20032;-53
2023/07/23 04:09:58;;;;;;;9.88;4.30;;;;;;;15.64;84.27;100573.00;5064744;28;20032;-51
2023/07/23 04:12:23;;;;;;;9.00;3.70;;;;;;;15.66;83.64;100567.47;5058349;28;20111;-50
2023/07/23 04:14:48;;;;;;;7.90;3.78;;;;;;;15.67;83.79;100571.81;5063623;28;20032;-50
2023/07/23 04:17:14;;;;;;;6.10;3.65;;;;;;;15.66;84.66;100570.16;5067566;28;20477;-52
2023/07/23 04:19:40;;;;;;;6.35;3.45;;;;;;;15.67;84.16;100566.47;5062067;28;20027;-50
2023/07/23 04:22:05;;;;;;;5.07;3.80;;;;;;;15.66;83.92;100562.94;5059511;28;20108;-50
2023/07/23 04:24:30;;;;;;;6.00;4.00;;;;;;;15.69;83.82;100575.19;5063880;28;20024;-49
2023/07/23 04:26:56;;;;;;;5.63;3.67;;;;;;;15.69;83.29;100570.66;5058246;28;20033;-50
2023/07/23 04:29:21;;;;;;;6.22;3.60;;;;;;;15.70;83.57;100569.69;5061998;28;20443;-50
2023/07/23 04:31:46;;;;;;;6.57;3.70;;;;;;;15.72;82.68;100562.31;5059199;28;20126;-49
2023/07/23 04:34:13;;;;;;;7.63;3.75;;;;;;;15.74;83.98;100572.88;5060280;28;20127;-50
2023/07/23 04:36:38;;;;;;;5.55;4.18;;;;;;;15.75;83.34;100571.03;5060242;28;20104;-50
2023/07/23 04:39:03;;;;;;;6.32;4.03;;;;;;;15.77;82.50;100577.09;5064031;28;20041;-50
2023/07/23 04:41:29;;;;;;;6.13;3.78;;;;;;;15.79;82.97;100572.44;5060565;28;20027;-50
2023/07/23 04:43:55;;;;;;;7.75;4.03;;;;;;;15.80;83.85;100571.44;5056496;28;20098;-50
2023/07/23 04:46:20;;;;;;;5.05;3.65;;;;;;;15.80;83.23;100572.25;5063378;28;20032;-50
2023/07/23 04:48:46;;;;;;;6.90;4.00;;;;;;;15.82;82.93;100564.06;5059236;28;20016;-49
2023/07/23 04:51:11;;;;;;;7.57;3.78;;;;;;;15.83;82.22;100571.94;5061681;28;20029;-49
2023/07/23 04:53:36;;;;;;;7.38;3.63;;;;;;;15.80;82.51;100560.72;5065994;28;20037;-49
2023/07/23 04:56:04;;;;;;;7.47;4.20;;;;;;;15.83;82.75;100563.91;5055529;28;20064;-50
2023/07/23 04:58:30;;;;;;;6.35;3.65;;;;;;;15.86;82.77;100570.81;5067725;28;20032;-50
2023/07/23 05:00:55;;;;;;;8.48;3.88;;;;;;;15.87;82.67;100567.97;5067524;28;20111;-50
2023/07/23 05:03:21;;;;;;;5.78;3.80;;;;;;;15.89;84.19;100559.78;5062306;28;20465;-49
2023/07/23 05:05:51;;;;;;;5.25;3.90;;;;;;;15.89;84.04;100567.81;5062537;28;20483;-49
2023/07/23 05:08:21;;;;;;;5.45;3.47;;;;;;;15.89;84.46;100571.31;5071660;28;20763;-50
2023/07/23 05:10:47;;;;;;;9.30;4.28;;;;;;;15.90;83.41;100569.47;5061991;28;20021;-50
2023/07/23 05:13:14;;;;;;;6.70;3.72;;;;;;;15.90;83.82;100572.16;5060523;28;20036;-49
2023/07/23 05:15:40;;;;;;;7.65;4.30;;;;;;;15.91;83.07;100565.81;5065149;28;20132;-49
2023/07/23 05:18:05;;;;;;;6.82;3.30;;;;;;;15.92;83.21;100572.84;5059471;28;20162;-49
2023/07/23 05:20:31;;;;;;;7.05;3.67;;;;;;;15.93;84.04;100571.84;5059360;28;20095;-49
2023/07/23 05:22:56;;;;;;;6.18;4.00;;;;;;;15.94;84.96;100572.66;5063264;28;20028;-49
2023/07/23 05:25:22;;;;;;;8.45;3.97;;;;;;;15.96;85.73;100576.88;5063467;28;20024;-49
2023/07/23 05:27:49;;;;;;;4.15;3.75;;;;;;;15.94;85.06;100573.53;5061751;28;20088;-50
2023/07/23 05:30:16;;;;;;;6.97;3.97;;;;;;;15.97;85.27;100567.00;5059331;28;20195;-50
2023/07/23 05:32:41;;;;;;;6.38;4.13;;;;;;;15.95;86.59;100569.00;5059559;28;20052;-49
2023/07/23 05:35:07;;;;;;;5.45;3.33;;;;;;;15.96;85.31;100563.50;5058647;28;20040;-50
2023/07/23 05:37:32;;;;;;;5.88;3.70;;;;;;;15.97;84.38;100569.69;5060060;28;20025;-49
2023/07/23 05:39:57;;;;;;;5.50;3.78;;;;;;;15.95;84.83;100556.44;5056207;28;20075;-50
2023/07/23 05:42:23;;;;;;;9.68;3.70;;;;;;;15.97;84.87;100558.97;5065184;28;20101;-50
2023/07/23 05:44:49;;;;;;;7.20;3.63;;;;;;;15.98;85.13;100560.66;5055221;28;20024;-50
2023/07/23 05:47:15;;;;;;;7.43;3.47;;;;;;;15.98;84.63;100564.16;5060291;28;20033;-51
2023/07/23 05:49:40;;;;;;;4.63;3.83;;;;;;;15.99;83.92;100568.53;5060243;28;20032;-53
2023/07/23 05:52:05;;;;;;;4.55;3.58;;;;;;;15.98;84.75;100561.47;5054762;28;20025;-50
2023/07/23 05:54:31;;;;;;;7.20;3.80;;;;;;;15.98;83.81;100561.47;5053750;28;20375;-50
2023/07/23 05:56:56;;;;;;;5.38;3.75;;;;;;;15.99;84.66;100563.19;5061186;28;20028;-51
2023/07/23 05:59:22;;;;;;;8.02;3.72;;;;;;;16.00;84.42;100564.00;5056756;28;20064;-52
2023/07/23 06:01:49;;;;;;;5.75;3.88;;;;;;;16.02;84.35;100556.66;5063576;28;20025;-51
2023/07/23 06:04:14;;;;;;;7.40;3.38;;;;;;;16.02;83.63;100551.28;5057479;28;20032;-51
2023/07/23 06:06:39;;;;;;;4.05;3.40;;;;;;;16.03;85.17;100556.47;5056507;28;20036;-51
2023/07/23 06:09:05;;;;;;;7.57;3.67;;;;;;;16.04;84.02;100560.84;5060814;28;20131;-49
2023/07/23 06:11:30;;;;;;;5.57;3.55;;;;;;;16.04;85.50;100568.06;5058649;28;20118;-50
2023/07/23 06:13:55;;;;;;;6.45;3.80;;;;;;;16.05;84.33;100570.59;5057625;28;20060;-50
2023/07/23 06:16:21;;;;;;;3.97;3.58;;;;;;;16.02;85.66;100560.19;5056423;28;20218;-52
2023/07/23 06:18:46;;;;;;;6.78;3.92;;;;;;;16.02;85.28;100573.56;5064898;28;20021;-51
2023/07/23 06:21:11;;;;;;;5.45;3.80;;;;;;;15.99;86.49;100562.34;5058293;28;20124;-53
2023/07/23 06:23:36;;;;;;;4.80;3.78;;;;;;;15.96;88.42;100568.84;5056986;28;20484;-51
2023/07/23 06:26:02;;;;;;;4.97;3.78;;;;;;;15.96;88.23;100568.03;5056138;28;20025;-52
2023/07/23 06:28:28;;;;;;;6.07;3.83;;;;;;;15.95;87.58;100564.47;5054727;28;20025;-53
2023/07/23 06:30:53;;;;;;;4.53;3.50;;;;;;;15.95;87.48;100575.19;5058423;28;20498;-50
2023/07/23 06:33:20;;;;;;;5.25;3.92;;;;;;;15.95;87.45;100577.88;5059286;28;20506;-53
2023/07/23 06:35:46;;;;;;;6.90;4.18;;;;;;;15.96;87.33;100574.19;5056852;28;20127;-51
2023/07/23 06:38:12;;;;;;;5.72;4.38;;;;;;;15.97;88.39;100575.91;5058428;28;20122;-51
2023/07/23 06:40:37;;;;;;;5.82;3.83;;;;;;;16.01;88.45;100587.13;5052953;28;20059;-50
2023/07/23 06:43:02;;;;;;;9.85;4.15;;;;;;;16.00;87.97;100586.25;5056875;28;20531;-51
2023/07/23 06:45:28;;;;;;;9.60;4.28;;;;;;;16.02;88.76;100592.31;5059077;28;20028;-50
2023/07/23 06:47:54;;;;;;;6.65;4.38;;;;;;;16.00;88.40;100593.47;5056732;28;20029;-51
2023/07/23 06:50:19;;;;;;;9.60;4.65;;;;;;;16.02;88.85;100600.38;5060847;28;20047;-51
2023/07/23 06:52:45;;;;;;;8.23;4.65;;;;;;;16.01;88.47;100600.53;5056863;28;20295;-51
2023/07/23 06:55:10;;;;;;;7.22;3.80;;;;;;;16.00;90.39;100596.97;5059473;28;20028;-50
2023/07/23 06:57:36;;;;;;;5.40;4.30;;;;;;;15.98;91.71;100598.97;5057313;28;20025;-50
2023/07/23 07:00:03;;;;;;;9.82;4.40;;;;;;;15.95;91.35;100599.31;5058602;28;20119;-50
2023/07/23 07:02:28;;;;;;;8.13;4.88;;;;;;;15.95;92.94;100601.97;5054810;28;20363;-50
2023/07/23 07:04:53;;;;;;;5.43;4.45;;;;;;;15.91;92.82;100596.09;5059815;28;20042;-51
2023/07/23 07:07:18;;;;;;;9.10;4.80;;;;;;;15.88;92.61;100600.94;5057810;28;20051;-51
2023/07/23 07:09:44;;;;;;;7.60;4.38;;;;;;;15.82;93.63;100598.88;5060782;28;20327;-50
2023/07/23 07:12:09;;;;;;;7.55;4.85;;;;;;;15.79;95.21;100601.91;5054882;28;20388;-51
2023/07/23 07:14:34;;;;;;;7.60;4.72;;;;;;;15.81;95.75;100591.88;5057242;28;20124;-51
2023/07/23 07:17:00;;;;;;;8.48;5.20;;;;;;;15.77;96.35;100596.69;5062336;28;20123;-51
2023/07/23 07:19:25;;;;;;;9.80;5.43;;;;;;;15.78;96.75;100587.66;5056224;28;20514;-50
2023/07/23 07:21:50;;;;;;;7.05;5.18;;;;;;;15.81;97.44;100591.88;5064987;28;20060;-51
2023/07/23 07:24:17;;;;;;;5.80;4.93;;;;;;;15.80;96.49;100591.00;5055891;28;20103;-51
2023/07/23 07:26:42;;;;;;;6.95;5.22;;;;;;;15.81;98.23;100587.34;5083481;22;20085;-83
2023/07/23 07:29:07;;;;;;;9.20;5.38;;;;;;;15.77;97.84;100586.00;5065373;28;20029;-86
2023/07/23 07:31:32;;;;;;;8.10;4.93;;;;;;;15.81;98.24;100589.19;5090899;28;20020;-86
2023/07/23 07:33:58;;;;;;;8.20;5.22;;;;;;;15.84;98.28;100592.38;5075611;28;20036;-84
2023/07/23 07:36:30;;;;;;;8.07;4.90;;;;;;;15.84;96.84;100591.56;5077697;28;20024;-85
2023/07/23 07:38:55;;;;;;;7.28;5.05;;;;;;;15.80;97.47;100591.00;5070630;28;20032;-85
2023/07/23 07:41:24;;;;;;;7.47;4.97;;;;;;;15.84;97.70;100589.72;5076798;28;20035;-85
2023/07/23 07:43:50;;;;;;;6.80;4.82;;;;;;;15.87;97.28;100592.06;5079105;28;20147;-85
2023/07/23 07:46:16;;;;;;;7.10;5.38;;;;;;;15.88;97.98;100591.06;5069188;28;20061;-85
2023/07/23 07:48:42;;;;;;;9.60;5.13;;;;;;;15.89;97.81;100589.25;5075586;28;20139;-85
2023/07/23 07:51:08;;;;;;;7.28;5.00;;;;;;;15.96;97.29;100594.81;5078027;28;20028;-85
2023/07/23 07:53:37;;;;;;;6.10;5.38;;;;;;;15.98;97.02;100596.31;5070066;28;20036;-85
2023/07/23 07:56:03;;;;;;;7.85;6.00;;;;;;;15.97;96.10;100591.97;5063051;28;20040;-85
2023/07/23 07:58:29;;;;;;;10.25;5.32;;;;;;;15.95;98.08;100590.44;5065294;28;20115;-86
2023/07/23 08:00:55;;;;;;;6.32;5.40;;;;;;;16.00;98.31;100596.16;5074591;28;20052;-85
2023/07/23 08:03:26;;;;;;;8.88;5.93;;;;;;;16.00;98.76;100591.63;5083648;28;20023;-86
2023/07/23 08:05:53;;;;;;;9.98;5.68;;;;;;;16.05;100.00;100596.50;5078158;28;20056;-85
2023/07/23 08:08:30;;;;;;;8.43;5.63;;;;;;;16.05;99.03;100593.81;5081536;28;20402;-86
2023/07/23 08:10:58;;;;;;;9.32;5.57;;;;;;;16.09;100.00;100600.56;5078656;28;20386;-87
2023/07/23 08:13:27;;;;;;;9.05;5.18;;;;;;;16.08;99.73;100593.50;5069527;28;20037;-85
2023/07/23 08:15:56;;;;;;;9.90;5.32;;;;;;;16.13;100.00;100588.50;5064896;28;20021;-86
2023/07/23 08:18:24;;;;;;;13.80;5.63;;;;;;;16.22;100.00;100592.06;5061510;28;20041;-83
2023/07/23 08:21:10;;;;;;;5.93;5.22;;;;;;;16.22;100.00;100587.56;5058354;28;20056;-86
2023/07/23 08:23:39;;;;;;;9.48;4.85;;;;;;;16.17;100.00;100573.81;5063064;28;20041;-86
2023/07/23 08:26:19;;;;;;;7.05;4.97;;;;;;;16.34;100.00;100587.28;5064563;28;20057;-86
2023/07/23 08:29:52;;;;;;;5.38;4.53;;;;;;;16.43;99.28;100586.28;5067735;28;20025;-85
2023/07/23 08:32:26;;;;;;;4.82;4.32;;;;;;;16.42;100.00;100584.59;5037620;28;20029;-84
2023/07/23 08:34:56;;;;;;;6.07;4.70;;;;;;;16.56;100.00;100588.53;5062338;28;20085;-86
2023/07/23 08:37:25;;;;;;;8.18;4.72;;;;;;;16.57;100.00;100598.22;5057644;28;20035;-84
2023/07/23 08:39:50;;;;;;;6.03;4.03;;;;;;;16.56;100.00;100585.84;5060217;28;20021;-83
2023/07/23 08:42:47;;;;;;;3.88;3.58;;;;;;;16.52;99.49;100574.63;5061935;28;20057;-84
2023/07/23 08:45:50;;;;;;;4.75;3.50;;;;;;;16.62;98.66;100591.41;5060995;28;20029;-86
2023/07/23 08:48:34;;;;;;;5.32;3.78;;;;;;;16.41;100.00;100556.16;5046692;28;20031;-84
2023/07/23 08:51:25;;;;;;;3.80;3.50;;;;;;;16.40;99.83;100563.34;5054308;28;20034;-83
2023/07/23 08:53:58;;;;;;;4.32;3.33;;;;;;;16.57;100.00;100584.81;5057431;28;20399;-84
2023/07/23 08:56:23;;;;;;;5.00;3.17;;;;;;;16.53;99.83;100578.94;5058859;28;20036;-84
2023/07/23 08:58:50;;;;;;;3.55;3.22;;;;;;;16.61;100.00;100588.88;5056843;28;20033;-83
2023/07/23 09:01:29;;;;;;;;;;;;;;;;;;;;;
2023/07/23 09:03:55;;;;;;;3.60;3.30;;;;;;;16.61;100.00;100578.16;5061549;28;20107;-84
2023/07/23 09:06:22;;;;;;;3.67;2.88;;;;;;;16.70;100.00;100597.78;5061970;28;20048;-84
2023/07/23 09:08:50;;;;;;;3.40;3.10;;;;;;;16.68;100.00;100595.25;5062193;28;20027;-84
2023/07/23 09:11:18;;;;;;;3.83;3.10;;;;;;;16.69;100.00;100593.44;5062788;28;20044;-84
2023/07/23 09:13:44;;;;;;;3.30;2.97;;;;;;;16.71;100.00;100596.78;5046739;28;20491;-85
2023/07/23 09:16:09;;;;;;;3.20;2.72;;;;;;;16.67;100.00;100604.31;5059789;28;20039;-84
2023/07/23 09:18:41;;;;;;;3.55;2.90;;;;;;;16.66;100.00;100602.63;5060029;28;20036;-84
2023/07/23 09:21:11;;;;;;;4.03;3.10;;;;;;;16.61;100.00;100597.75;5059962;28;20041;-84
2023/07/23 09:23:54;;;;;;;3.28;2.60;;;;;;;16.68;100.00;100592.56;5059676;28;20024;-85
2023/07/23 09:26:23;;;;;;;3.90;2.80;;;;;;;16.66;100.00;100599.94;5058110;28;20067;-86
2023/07/23 09:28:50;;;;;;;3.67;2.78;;;;;;;16.68;100.00;100597.94;5051463;28;20057;-85
2023/07/23 09:31:32;;;;;;;;;;;;;;;;;;;;;
2023/07/23 09:34:00;;;;;;;3.47;3.05;;;;;;;16.57;100.00;100595.53;5050981;28;20041;-85
2023/07/23 09:36:27;;;;;;;5.05;2.85;;;;;;;16.60;100.00;100600.59;5054152;28;20364;-85
2023/07/23 09:39:05;;;;;;;3.47;3.17;;;;;;;16.63;100.00;100608.31;5050507;28;20036;-85
2023/07/23 09:41:33;;;;;;;3.60;3.30;;;;;;;16.62;100.00;100603.94;5056151;28;20108;-85
2023/07/23 09:44:05;;;;;;;3.83;3.30;;;;;;;16.59;100.00;100597.06;5057643;28;20453;-85
2023/07/23 09:46:39;;;;;;;4.18;3.22;;;;;;;16.65;100.00;100608.97;5057685;28;20024;-85
2023/07/23 09:49:05;;;;;;;4.95;3.05;;;;;;;16.67;100.00;100607.00;5057542;28;20066;-85
2023/07/23 09:51:34;;;;;;;3.15;2.90;;;;;;;16.60;100.00;100592.53;5055919;28;20033;-86
2023/07/23 09:54:03;;;;;;;;;;;;;;;16.80;100.00;100612.72;5057249;28;20034;-84
2023/07/23 09:56:42;;;;;;;3.83;3.10;;;;;;;16.62;100.00;100602.13;5056502;28;20011;-84
2023/07/23 09:59:11;;;;;;;3.28;2.92;;;;;;;16.56;100.00;100593.88;5045905;28;20130;-84
2023/07/23 10:01:37;;;;;;;3.25;2.95;;;;;;;16.61;100.00;100607.66;5053597;28;20033;-84
2023/07/23 10:04:03;;;;;;;3.97;3.03;;;;;;;16.64;100.00;100618.06;5054522;28;20075;-84
2023/07/23 10:06:28;;;;;;;3.40;3.10;;;;;;;16.56;100.00;100607.28;5054155;28;20056;-84
2023/07/23 10:08:55;;;;;;;3.38;3.08;;;;;;;16.55;100.00;100611.78;5041468;28;20044;-84
2023/07/23 10:11:21;;;;;;;3.08;2.88;;;;;;;16.55;100.00;100610.97;5054803;28;20079;-84
2023/07/23 10:13:51;;;;;;;3.63;2.60;;;;;;;16.57;100.00;100622.34;5039861;28;20060;-84
2023/07/23 10:16:37;;;;;;;2.70;2.50;;;;;;;16.60;100.00;100630.09;5051075;28;20402;-84
2023/07/23 10:19:04;;;;;;;4.28;3.00;;;;;;;16.59;100.00;100620.38;5054899;28;20110;-84
2023/07/23 10:21:32;;;;;;;4.97;2.70;;;;;;;16.60;100.00;100622.91;5057310;28;20033;-84
2023/07/23 10:23:58;;;;;;;2.97;2.75;;;;;;;16.60;100.00;100619.34;5053069;28;20090;-84
2023/07/23 10:26:28;;;;;;;3.17;2.88;;;;;;;16.58;100.00;100618.69;5053085;28;20049;-84
2023/07/23 10:29:18;;;;;;;3.20;2.90;;;;;;;16.62;100.00;100622.72;5050841;28;20039;-85
2023/07/23 10:31:44;;;;;;;2.90;2.60;;;;;;;16.63;100.00;100619.88;5049959;28;20043;-84
2023/07/23 10:34:22;;;;;;;2.95;2.50;;;;;;;16.65;100.00;100625.06;5054552;28;20041;-84
2023/07/23 10:37:18;;;;;;;3.33;3.03;;;;;;;16.65;100.00;100620.56;5053662;28;20025;-84
2023/07/23 10:39:46;;;;;;;5.35;2.88;;;;;;;16.63;100.00;100617.19;5048298;28;20080;-84
2023/07/23 10:42:36;;;;;;;3.10;2.80;;;;;;;16.68;100.00;100619.38;5053865;28;20028;-84
2023/07/23 10:45:20;;;;;;;2.63;2.42;;;;;;;16.65;100.00;100617.88;5034544;28;20060;-85
2023/07/23 10:47:55;;;;;;;3.20;2.80;;;;;;;16.68;100.00;100619.38;5052406;28;20032;-84
2023/07/23 10:50:21;;;;;;;3.72;3.00;;;;;;;16.69;100.00;100615.72;5054131;28;20040;-84
2023/07/23 10:52:52;;;;;;;3.33;3.05;;;;;;;16.59;100.00;100605.13;5057926;28;20033;-85
2023/07/23 10:55:35;;;;;;;3.25;2.95;;;;;;;16.76;100.00;100627.47;5057097;28;20036;-84
2023/07/23 10:58:10;;;;;;;3.28;2.97;;;;;;;16.75;100.00;100623.13;5062919;28;20058;-84
2023/07/23 11:00:41;;;;;;;3.28;2.97;;;;;;;16.81;100.00;100626.97;5075715;28;20024;-84
2023/07/23 11:03:11;;;;;;;3.78;3.30;;;;;;;16.83;100.00;100627.66;5073144;28;20115;-84
2023/07/23 11:05:44;;;;;;;3.58;3.25;;;;;;;16.91;100.00;100627.69;5058712;28;20033;-85
2023/07/23 11:08:15;;;;;;;3.60;3.28;;;;;;;16.96;100.00;100627.22;5063381;28;20041;-84
2023/07/23 11:11:09;;;;;;;4.22;3.47;;;;;;;17.05;100.00;100626.19;5054386;28;20112;-84
2023/07/23 11:13:35;;;;;;;3.60;3.30;;;;;;;17.13;100.00;100623.53;5049375;28;20148;-83
2023/07/23 11:16:02;;;;;;;3.67;3.17;;;;;;;17.29;100.00;100619.22;5042069;28;20454;-84
2023/07/23 11:18:32;;;;;;;4.80;3.50;;;;;;;17.38;100.00;100621.69;5053993;28;20057;-84
2023/07/23 11:21:02;;;;;;;5.32;3.90;;;;;;;17.48;100.00;100626.06;5061118;28;20044;-84
2023/07/23 11:23:28;;;;;;;4.30;3.85;;;;;;;17.57;100.00;100608.97;5061995;28;20101;-84
2023/07/23 11:25:53;;;;;;;5.85;3.85;;;;;;;17.66;100.00;100617.84;5044841;28;20386;-83
2023/07/23 11:28:21;;;;;;;5.80;3.78;;;;;;;17.78;100.00;100621.03;5053987;28;20092;-84